createdAt,value
2022-11-16T00:01:18.877Z,57.20
2022-11-16T00:04:21.515Z,56.03
2022-11-16T00:07:23.851Z,60.58
2022-11-16T00:10:26.478Z,66.15
2022-11-16T00:13:28.746Z,61.72
2022-11-16T00:16:31.872Z,78.75
2022-11-16T00:19:34.310Z,72.65
2022-11-16T00:22:36.819Z,60.42
2022-11-16T00:25:39.073Z,69.78
2022-11-16T00:28:41.556Z,70.03
2022-11-16T00:31:44.783Z,74.03
2022-11-16T00:34:47.288Z,70.68
2022-11-16T00:37:51.690Z,68.75
2022-11-16T00:40:54.311Z,73.15
2022-11-16T00:43:56.564Z,76.35
2022-11-16T00:46:59.070Z,71.05
2022-11-16T00:50:01.923Z,64.50
2022-11-16T00:53:05.513Z,71.18
2022-11-16T00:56:07.994Z,72.63
2022-11-16T00:59:10.876Z,73.27
2022-11-16T01:02:13.204Z,73.18
2022-11-16T01:05:16.135Z,74.25
2022-11-16T01:08:18.331Z,73.53
2022-11-16T01:11:39.537Z,70.28
2022-11-16T01:14:44.224Z,69.22
2022-11-16T01:17:47.539Z,70.00
2022-11-16T01:20:51.117Z,68.07
2022-11-16T01:23:54.791Z,61.33
2022-11-16T01:26:58.171Z,72.25
2022-11-16T01:30:00.889Z,66.53
2022-11-16T01:33:03.288Z,66.97
2022-11-16T01:36:14.340Z,69.00
2022-11-16T01:39:18.034Z,75.62
2022-11-16T01:42:24.893Z,63.25
2022-11-16T01:45:48.196Z,65.25
2022-11-16T01:49:03.343Z,66.85
2022-11-16T01:52:10.632Z,65.65
2022-11-16T01:55:14.170Z,65.65
2022-11-16T01:58:20.992Z,69.57
2022-11-16T02:01:24.491Z,67.85
2022-11-16T02:04:27.617Z,62.33
2022-11-16T02:08:23.664Z,64.35
2022-11-16T02:12:06.920Z,64.43
2022-11-16T02:15:44.963Z,60.88
2022-11-16T02:19:06.864Z,55.90
2022-11-16T02:22:25.513Z,57.60
2022-11-16T02:25:38.982Z,52.70
2022-11-16T02:29:07.751Z,54.38
2022-11-16T02:32:19.262Z,51.28
2022-11-16T02:35:27.339Z,48.47
2022-11-16T02:38:35.166Z,51.10
2022-11-16T02:41:41.042Z,54.47
2022-11-16T02:44:49.646Z,51.90
2022-11-16T02:47:55.828Z,50.50
2022-11-16T02:50:58.516Z,47.58
2022-11-16T02:54:15.385Z,48.30
2022-11-16T02:57:39.453Z,49.25
2022-11-16T03:01:03.344Z,49.15
2022-11-16T03:04:28.758Z,46.15
2022-11-16T03:07:44.066Z,46.97
2022-11-16T03:11:11.858Z,52.08
2022-11-16T03:14:20.708Z,57.58
2022-11-16T03:17:39.330Z,51.13
2022-11-16T03:20:44.095Z,45.67
2022-11-16T03:23:46.939Z,42.33
2022-11-16T03:27:07.137Z,39.67
2022-11-16T03:30:24.928Z,43.60
2022-11-16T03:33:32.990Z,42.20
2022-11-16T03:36:40.766Z,49.47
2022-11-16T03:39:44.612Z,42.85
2022-11-16T03:42:49.612Z,38.40
2022-11-16T03:45:53.588Z,51.25
2022-11-16T03:49:00.556Z,43.17
2022-11-16T03:52:05.483Z,46.85
2022-11-16T03:55:09.316Z,50.55
2022-11-16T03:58:11.956Z,46.13
2022-11-16T04:01:14.724Z,42.95
2022-11-16T04:04:36.305Z,42.33
2022-11-16T04:07:57.614Z,39.30
2022-11-16T04:11:19.003Z,40.95
2022-11-16T04:14:42.976Z,43.20
2022-11-16T04:18:04.832Z,39.28
2022-11-16T04:21:36.119Z,41.45
2022-11-16T04:24:43.162Z,40.58
2022-11-16T04:28:04.274Z,41.63
2022-11-16T04:31:25.511Z,45.38
2022-11-16T04:34:48.844Z,46.72
2022-11-16T04:37:53.541Z,44.38
2022-11-16T04:43:59.184Z,49.03
2022-11-16T04:47:07.819Z,43.10
2022-11-16T04:50:11.091Z,52.60
2022-11-16T04:53:14.105Z,51.10
2022-11-16T04:56:18.339Z,56.17
2022-11-16T04:59:21.512Z,57.17
2022-11-16T05:02:24.115Z,52.20
2022-11-16T05:05:26.792Z,51.72
2022-11-16T05:08:29.370Z,50.58
2022-11-16T05:11:31.642Z,52.05
2022-11-16T05:14:34.667Z,54.38
2022-11-16T05:17:37.097Z,51.37
2022-11-16T05:20:58.902Z,64.93
2022-11-16T05:24:20.646Z,60.95
2022-11-16T05:27:25.593Z,61.08
2022-11-16T05:30:29.712Z,62.65
2022-11-16T05:33:33.148Z,64.60
2022-11-16T05:36:35.418Z,56.70
2022-11-16T05:39:38.755Z,57.05
2022-11-16T05:42:41.003Z,66.25
2022-11-16T05:45:43.942Z,66.55
2022-11-16T05:48:46.839Z,65.20
2022-11-16T05:51:50.277Z,57.85
2022-11-16T05:54:53.422Z,62.62
2022-11-16T05:57:55.997Z,65.70
2022-11-16T06:00:58.609Z,62.33
2022-11-16T06:04:02.139Z,70.65
2022-11-16T06:07:04.950Z,65.28
2022-11-16T06:10:07.959Z,63.60
2022-11-16T06:13:10.652Z,75.80
2022-11-16T06:16:13.634Z,67.83
2022-11-16T06:19:16.040Z,66.95
2022-11-16T06:22:18.603Z,71.60
2022-11-16T06:25:20.927Z,64.60
2022-11-16T06:28:24.198Z,71.87
2022-11-16T06:31:26.517Z,74.32
2022-11-16T06:34:29.883Z,76.60
2022-11-16T06:37:33.582Z,73.10
2022-11-16T06:40:38.402Z,68.85
2022-11-16T06:43:40.613Z,69.07
2022-11-16T06:46:43.158Z,77.15
2022-11-16T06:49:47.127Z,66.45
2022-11-16T06:52:50.569Z,75.22
2022-11-16T06:55:53.188Z,78.40
2022-11-16T06:58:57.230Z,73.10
2022-11-16T07:02:00.400Z,79.65
2022-11-16T07:05:05.012Z,71.95
2022-11-16T07:11:11.156Z,68.45
2022-11-16T07:14:13.622Z,72.63
2022-11-16T07:17:16.769Z,75.40
2022-11-16T07:20:19.445Z,63.87
2022-11-16T07:23:22.848Z,78.60
2022-11-16T07:26:25.493Z,74.18
2022-11-16T07:29:28.606Z,74.60
2022-11-16T07:32:39.988Z,72.00
2022-11-16T07:35:44.523Z,74.12
2022-11-16T07:38:47.197Z,74.93
2022-11-16T07:41:53.071Z,67.75
2022-11-16T07:44:56.619Z,80.40
2022-11-16T07:47:59.183Z,66.68
2022-11-16T07:51:04.919Z,78.05
2022-11-16T07:54:08.279Z,68.97
2022-11-16T07:57:10.649Z,70.07
2022-11-16T08:00:14.915Z,74.90
2022-11-16T08:03:24.460Z,72.15
2022-11-16T08:06:30.955Z,78.90
2022-11-16T08:09:34.956Z,79.37
2022-11-16T08:12:37.491Z,85.72
2022-11-16T08:15:41.246Z,75.68
2022-11-16T08:18:44.884Z,84.62
2022-11-16T08:21:48.306Z,66.87
2022-11-16T08:24:51.019Z,84.97
2022-11-16T08:27:53.593Z,84.60
2022-11-16T08:30:57.108Z,72.68
2022-11-16T08:34:00.501Z,79.12
2022-11-16T08:37:03.023Z,73.68
2022-11-16T08:40:07.450Z,75.18
2022-11-16T08:46:14.583Z,75.28
2022-11-16T08:49:18.336Z,75.78
2022-11-16T08:52:21.485Z,78.35
2022-11-16T08:55:25.528Z,79.20
2022-11-16T08:58:28.171Z,77.87
2022-11-16T09:01:32.821Z,74.35
2022-11-16T09:04:37.187Z,72.75
2022-11-16T09:07:40.829Z,68.97
2022-11-16T09:10:43.440Z,62.90
2022-11-16T09:13:48.478Z,85.47
2022-11-16T09:16:51.162Z,72.18
2022-11-16T09:19:53.492Z,75.32
2022-11-16T09:22:55.985Z,67.22
2022-11-16T09:26:01.845Z,77.80
2022-11-16T09:29:04.426Z,72.32
2022-11-16T09:32:06.962Z,72.37
2022-11-16T09:35:09.907Z,65.18
2022-11-16T09:38:16.174Z,69.82
2022-11-16T09:41:52.396Z,67.90
2022-11-16T09:45:25.110Z,71.57
2022-11-16T09:48:28.353Z,79.62
2022-11-16T09:51:33.803Z,65.45
2022-11-16T09:54:43.235Z,67.90
2022-11-16T09:57:47.704Z,70.32
2022-11-16T10:00:58.927Z,64.30
2022-11-16T10:04:18.265Z,62.33
2022-11-16T10:07:26.878Z,66.62
2022-11-16T10:10:33.246Z,64.70
2022-11-16T10:14:13.347Z,72.12
2022-11-16T10:17:40.203Z,59.00
2022-11-16T10:21:04.053Z,58.60
2022-11-16T10:24:47.253Z,72.85
2022-11-16T10:28:18.002Z,65.45
2022-11-16T10:31:24.000Z,65.78
2022-11-16T10:34:30.421Z,55.78
2022-11-16T10:37:37.423Z,56.37
2022-11-16T10:40:41.245Z,53.13
2022-11-16T10:43:45.672Z,61.05
2022-11-16T10:46:59.238Z,54.08
2022-11-16T10:50:32.379Z,51.22
2022-11-16T10:53:37.560Z,62.25
2022-11-16T10:56:47.752Z,60.08
2022-11-16T10:59:55.612Z,64.40
2022-11-16T11:02:59.181Z,56.65
2022-11-16T11:06:01.453Z,53.38
2022-11-16T11:09:22.804Z,66.03
2022-11-16T11:12:39.093Z,57.08
2022-11-16T11:15:43.153Z,54.20
2022-11-16T11:18:45.473Z,56.20
2022-11-16T11:21:49.037Z,51.70
2022-11-16T11:24:51.582Z,54.53
2022-11-16T11:28:06.831Z,56.75
2022-11-16T11:31:25.831Z,54.00
2022-11-16T11:34:31.318Z,53.85
2022-11-16T11:37:36.901Z,47.15
2022-11-16T11:40:39.691Z,48.95
2022-11-16T11:43:42.039Z,54.45
2022-11-16T11:50:50.881Z,45.90
2022-11-16T11:53:55.502Z,48.55
2022-11-16T11:56:58.412Z,48.58
2022-11-16T12:00:03.228Z,52.63
2022-11-16T12:03:39.997Z,53.08
2022-11-16T12:06:51.498Z,55.08
2022-11-16T12:10:08.058Z,55.03
2022-11-16T12:13:49.482Z,52.30
2022-11-16T12:17:07.256Z,51.58
2022-11-16T12:20:21.006Z,58.50
2022-11-16T12:23:43.037Z,53.83
2022-11-16T12:26:56.880Z,58.08
2022-11-16T12:30:08.154Z,47.80
2022-11-16T12:33:22.277Z,46.25
2022-11-16T12:37:09.410Z,49.75
2022-11-16T12:40:35.775Z,45.78
2022-11-16T12:43:43.837Z,48.35
2022-11-16T12:47:17.967Z,47.13
2022-11-16T12:50:38.822Z,44.60
2022-11-16T12:54:09.484Z,49.97
2022-11-16T12:57:37.553Z,44.78
2022-11-16T13:01:21.407Z,53.95
2022-11-16T13:04:30.706Z,49.10
2022-11-16T13:07:42.829Z,44.47
2022-11-16T13:10:49.402Z,46.20
2022-11-16T13:13:58.329Z,44.30
2022-11-16T13:17:03.330Z,43.70
2022-11-16T13:20:40.780Z,46.08
2022-11-16T13:24:10.514Z,42.67
2022-11-16T13:27:45.219Z,66.25
2022-11-16T13:31:01.983Z,49.97
2022-11-16T13:34:20.437Z,44.17
2022-11-16T13:37:38.145Z,47.55
2022-11-16T13:40:41.451Z,43.92
2022-11-16T13:43:49.495Z,40.90
2022-11-16T13:47:04.419Z,41.90
2022-11-16T13:50:18.762Z,36.88
2022-11-16T13:54:25.133Z,43.28
2022-11-16T13:56:51.872Z,44.22
2022-11-16T14:00:04.982Z,37.42
2022-11-16T14:03:16.651Z,35.83
2022-11-16T14:06:18.824Z,40.88
2022-11-16T14:09:41.189Z,35.67
2022-11-16T14:12:52.905Z,34.58
2022-11-16T14:16:20.521Z,38.40
2022-11-16T14:19:44.608Z,38.08
2022-11-16T14:22:59.148Z,33.65
2022-11-16T14:29:37.062Z,33.15
2022-11-16T14:32:52.705Z,28.95
2022-11-16T14:35:55.514Z,32.97
2022-11-16T14:39:17.358Z,29.58
2022-11-16T14:42:27.235Z,32.42
2022-11-16T14:45:31.870Z,27.13
2022-11-16T14:48:41.951Z,30.73
2022-11-16T14:51:47.589Z,25.70
2022-11-16T14:55:00.607Z,25.45
2022-11-16T14:58:23.301Z,27.77
2022-11-16T15:01:46.335Z,27.40
2022-11-16T15:04:51.582Z,27.33
2022-11-16T15:07:57.916Z,28.23
2022-11-16T15:11:00.965Z,31.73
2022-11-16T15:14:03.496Z,31.75
2022-11-16T15:17:07.441Z,29.60
2022-11-16T15:20:22.089Z,30.60
2022-11-16T15:23:30.336Z,29.40
2022-11-16T15:26:33.459Z,28.60
2022-11-16T15:29:36.292Z,27.65
2022-11-16T15:32:43.062Z,34.67
2022-11-16T15:35:47.249Z,31.85
2022-11-16T15:38:54.681Z,32.97
2022-11-16T15:42:03.245Z,28.05
2022-11-16T15:45:15.473Z,26.48
2022-11-16T15:48:22.083Z,27.13
2022-11-16T15:51:24.867Z,29.87
2022-11-16T15:54:27.056Z,27.87
2022-11-16T15:57:29.889Z,30.90
2022-11-16T16:00:35.569Z,32.35
2022-11-16T16:03:38.800Z,28.55
2022-11-16T16:06:59.507Z,30.77
2022-11-16T16:10:37.438Z,36.80
2022-11-16T16:13:55.840Z,33.47
2022-11-16T16:17:00.498Z,32.20
2022-11-16T16:20:06.646Z,30.80
2022-11-16T16:23:13.178Z,31.85
2022-11-16T16:26:16.411Z,33.35
2022-11-16T16:29:18.930Z,28.98
2022-11-16T16:32:33.462Z,26.45
2022-11-16T16:35:35.987Z,27.33
2022-11-16T16:38:38.970Z,28.87
2022-11-16T16:41:41.513Z,36.05
2022-11-16T16:44:45.433Z,29.25
2022-11-16T16:47:48.076Z,28.85
2022-11-16T16:50:50.410Z,24.45
2022-11-16T16:53:53.027Z,28.52
2022-11-16T16:56:57.317Z,32.33
2022-11-16T17:00:00.073Z,29.40
2022-11-16T17:03:02.387Z,30.15
2022-11-16T17:06:05.101Z,28.80
2022-11-16T17:09:07.356Z,27.00
2022-11-16T17:12:11.007Z,28.30
2022-11-16T17:15:19.027Z,32.15
2022-11-16T17:18:22.710Z,29.98
2022-11-16T17:21:25.060Z,26.40
2022-11-16T17:24:37.193Z,25.20
2022-11-16T17:27:42.408Z,30.27
2022-11-16T17:30:44.979Z,31.42
2022-11-16T17:33:47.401Z,30.12
2022-11-16T17:36:50.056Z,26.45
2022-11-16T17:39:52.237Z,24.10
2022-11-16T17:42:54.808Z,28.33
2022-11-16T17:46:07.705Z,25.65
2022-11-16T17:49:10.276Z,26.30
2022-11-16T17:52:12.762Z,24.25
2022-11-16T17:55:15.496Z,22.55
2022-11-16T17:58:17.823Z,22.92
2022-11-16T18:01:21.726Z,23.45
2022-11-16T18:04:24.509Z,24.80
2022-11-16T18:07:27.381Z,22.33
2022-11-16T18:10:29.936Z,25.85
2022-11-16T18:13:32.943Z,23.83
2022-11-16T18:16:36.216Z,28.02
2022-11-16T18:19:38.767Z,26.45
2022-11-16T18:22:41.380Z,26.48
2022-11-16T18:25:43.640Z,34.08
2022-11-16T18:28:49.599Z,27.60
2022-11-16T18:31:51.917Z,25.83
2022-11-16T18:34:56.844Z,26.10
2022-11-16T18:37:59.198Z,22.00
2022-11-16T18:41:07.646Z,22.30
2022-11-16T18:44:13.561Z,23.67
2022-11-16T18:47:16.200Z,26.02
2022-11-16T18:50:25.518Z,25.10
2022-11-16T18:53:30.523Z,23.80
2022-11-16T18:56:35.100Z,23.12
2022-11-16T18:59:38.133Z,22.05
2022-11-16T19:02:40.744Z,22.92
2022-11-16T19:05:43.851Z,21.65
2022-11-16T19:08:53.696Z,41.70
2022-11-16T19:11:57.735Z,28.48
2022-11-16T19:15:00.260Z,20.40
2022-11-16T19:18:22.229Z,18.67
2022-11-16T19:21:25.314Z,17.08
2022-11-16T19:24:27.805Z,19.70
2022-11-16T19:27:30.617Z,14.32
2022-11-16T19:30:33.235Z,13.97
2022-11-16T19:33:36.184Z,14.30
2022-11-16T19:36:39.139Z,14.13
2022-11-16T19:39:41.442Z,13.30
2022-11-16T19:42:44.036Z,11.70
2022-11-16T19:45:47.786Z,14.30
2022-11-16T19:51:52.952Z,14.10
2022-11-16T19:54:56.078Z,13.75
2022-11-16T19:57:58.366Z,17.42
2022-11-16T20:01:06.554Z,17.35
2022-11-16T20:04:09.401Z,17.20
2022-11-16T20:07:18.112Z,23.08
2022-11-16T20:10:22.780Z,19.02
2022-11-16T20:13:25.183Z,17.98
2022-11-16T20:16:34.047Z,13.38
2022-11-16T20:19:40.681Z,15.38
2022-11-16T20:22:46.546Z,16.33
2022-11-16T20:25:48.798Z,14.13
2022-11-16T20:28:55.649Z,16.58
2022-11-16T20:31:57.967Z,22.15
2022-11-16T20:35:00.552Z,18.90
2022-11-16T20:38:02.842Z,16.02
2022-11-16T20:41:16.129Z,13.30
2022-11-16T20:44:21.198Z,15.30
2022-11-16T20:47:23.732Z,13.88
2022-11-16T20:50:26.033Z,17.77
2022-11-16T20:53:28.673Z,16.98
2022-11-16T20:56:31.069Z,20.33
2022-11-16T20:59:33.936Z,15.18
2022-11-16T21:02:36.180Z,18.12
2022-11-16T21:05:46.263Z,15.48
2022-11-16T21:08:48.478Z,17.85
2022-11-16T21:12:09.774Z,17.75
2022-11-16T21:15:12.120Z,18.37
2022-11-16T21:18:14.695Z,17.40
2022-11-16T21:21:17.321Z,16.52
2022-11-16T21:24:19.810Z,19.75
2022-11-16T21:27:22.117Z,18.55
2022-11-16T21:30:24.619Z,18.20
2022-11-16T21:33:27.465Z,19.70
2022-11-16T21:36:32.055Z,16.70
2022-11-16T21:39:34.391Z,18.70
2022-11-16T21:42:36.929Z,16.17
2022-11-16T21:45:39.192Z,16.58
2022-11-16T21:48:42.255Z,15.38
2022-11-16T21:51:44.469Z,14.85
2022-11-16T21:54:56.057Z,16.27
2022-11-16T21:57:58.629Z,15.68
2022-11-16T22:01:02.543Z,17.35
2022-11-16T22:04:23.665Z,19.02
2022-11-16T22:07:36.915Z,22.02
2022-11-16T22:10:39.760Z,21.83
2022-11-16T22:13:42.631Z,23.17
2022-11-16T22:16:45.173Z,24.73
2022-11-16T22:19:47.977Z,23.38
2022-11-16T22:22:50.474Z,29.27
2022-11-16T22:25:53.276Z,22.58
2022-11-16T22:28:56.329Z,27.00
2022-11-16T22:31:58.591Z,27.58
2022-11-16T22:35:01.113Z,25.70
2022-11-16T22:38:06.116Z,27.08
2022-11-16T22:41:09.294Z,28.55
2022-11-16T22:44:11.557Z,27.40
2022-11-16T22:47:14.086Z,24.45
2022-11-16T22:50:16.383Z,28.15
2022-11-16T22:53:20.947Z,23.67
2022-11-16T22:56:24.473Z,26.95
2022-11-16T22:59:27.159Z,26.10
2022-11-16T23:02:29.448Z,25.83
2022-11-16T23:05:31.977Z,25.95
2022-11-16T23:08:35.523Z,23.50
2022-11-16T23:11:56.857Z,23.73
2022-11-16T23:15:17.703Z,22.83
2022-11-16T23:18:20.388Z,23.67
2022-11-16T23:21:41.814Z,24.02
2022-11-16T23:25:03.854Z,26.42
2022-11-16T23:28:14.550Z,26.62
2022-11-16T23:31:17.040Z,28.73
2022-11-16T23:34:20.031Z,23.20
2022-11-16T23:37:23.023Z,23.83
2022-11-16T23:40:43.131Z,22.08
2022-11-16T23:44:00.732Z,24.05
2022-11-16T23:47:02.983Z,23.98
2022-11-16T23:50:08.990Z,21.77
2022-11-16T23:53:12.212Z,23.80
2022-11-16T23:56:14.864Z,23.87
2022-11-16T23:59:17.090Z,22.42
